Time;durP1;ratioP1;P1;durP2;ratioP2;P2;SDS_P1;SDS_P2;PMS_P1;PMS_P2;Temp;Humidity;BMP_temperature;BMP_pressure;BME280_temperature;BME280_humidity;BME280_pressure;Samples;Min_cycle;Max_cycle;Signal;HPM_P1;HPM_P2
2023/09/22 00:01:55;;;;;;;8.85;6.25;;;;;;;19.04;100.00;98199.03;5053364;28;20361;-86
2023/09/22 00:04:20;;;;;;;9.75;6.22;;;;;;;19.04;100.00;98206.94;5053572;28;20142;-85
2023/09/22 00:06:46;;;;;;;7.13;5.75;;;;;;;19.17;100.00;98219.69;5053239;28;20025;-85
2023/09/22 00:09:11;;;;;;;9.93;6.80;;;;;;;18.94;100.00;98186.00;5053654;28;20037;-86
2023/09/22 00:11:37;;;;;;;10.60;6.60;;;;;;;19.02;100.00;98206.31;5035414;28;20044;-86
2023/09/22 00:14:03;;;;;;;8.65;6.15;;;;;;;18.89;100.00;98195.38;5053318;28;20032;-85
2023/09/22 00:16:29;;;;;;;7.50;6.68;;;;;;;18.95;100.00;98216.66;5053295;28;20027;-85
2023/09/22 00:18:55;;;;;;;7.60;5.90;;;;;;;18.81;100.00;98196.16;5053120;28;20031;-86
2023/09/22 00:21:20;;;;;;;11.45;6.88;;;;;;;18.87;100.00;98206.06;5053286;28;20021;-86
2023/09/22 00:23:46;;;;;;;10.40;6.72;;;;;;;18.85;100.00;98199.31;5052978;28;20036;-85
2023/09/22 00:26:11;;;;;;;12.30;6.03;;;;;;;18.81;100.00;98192.72;5053328;28;20110;-85
2023/09/22 00:28:36;;;;;;;9.88;6.78;;;;;;;18.92;100.00;98205.63;5052995;28;20024;-85
2023/09/22 00:31:02;;;;;;;9.25;6.90;;;;;;;18.88;100.00;98204.28;5053068;28;20028;-85
2023/09/22 00:33:28;;;;;;;12.40;7.20;;;;;;;18.72;100.00;98186.59;5034988;28;20025;-85
2023/09/22 00:35:53;;;;;;;12.98;6.13;;;;;;;18.62;100.00;98173.47;5051321;28;20036;-85
2023/09/22 00:38:18;;;;;;;11.75;7.18;;;;;;;18.71;100.00;98198.13;5052757;28;20020;-85
2023/09/22 00:40:44;;;;;;;8.68;6.63;;;;;;;18.67;100.00;98199.38;5052773;28;20025;-85
2023/09/22 00:43:11;;;;;;;9.35;6.82;;;;;;;18.48;100.00;98179.34;5052901;28;20182;-85
2023/09/22 00:45:47;;;;;;;12.10;7.82;;;;;;;18.51;100.00;98192.22;5052550;28;20025;-85
2023/09/22 00:48:30;;;;;;;10.63;6.80;;;;;;;18.51;100.00;98199.31;5052545;28;20021;-86
2023/09/22 00:50:57;;;;;;;10.85;7.68;;;;;;;18.43;100.00;98186.91;5052257;28;20535;-85
2023/09/22 00:53:24;;;;;;;10.50;7.03;;;;;;;18.45;100.00;98175.19;5052705;28;20033;-86
2023/09/22 00:55:52;;;;;;;10.38;7.53;;;;;;;18.43;100.00;98174.53;5052430;28;20028;-86
2023/09/22 00:58:18;;;;;;;8.30;6.97;;;;;;;18.49;100.00;98181.00;5052539;28;20166;-85
2023/09/22 01:00:47;;;;;;;9.95;7.18;;;;;;;18.57;100.00;98185.47;5052476;28;20104;-86
2023/09/22 01:03:13;;;;;;;10.70;7.22;;;;;;;18.63;100.00;98201.50;5052319;28;20361;-86
2023/09/22 01:05:39;;;;;;;7.72;6.55;;;;;;;18.55;100.00;98182.19;5051061;28;20036;-85
2023/09/22 01:08:04;;;;;;;7.75;6.25;;;;;;;18.54;100.00;98178.72;5034575;28;20029;-85
2023/09/22 01:10:41;;;;;;;8.75;6.43;;;;;;;18.67;100.00;98197.56;5052441;28;20024;-85
2023/09/22 01:13:08;;;;;;;10.52;6.75;;;;;;;18.69;100.00;98207.97;5052222;28;20467;-86
2023/09/22 01:15:35;;;;;;;10.02;6.65;;;;;;;18.56;100.00;98181.19;5034306;28;20032;-86
2023/09/22 01:18:01;;;;;;;11.05;6.80;;;;;;;18.49;100.00;98164.34;5034240;28;20021;-85
2023/09/22 01:20:26;;;;;;;8.02;6.35;;;;;;;18.69;100.00;98195.63;5034407;28;20029;-85
2023/09/22 01:22:52;;;;;;;10.00;6.90;;;;;;;18.51;100.00;98175.56;5050720;28;20032;-85
2023/09/22 01:25:17;;;;;;;10.32;6.57;;;;;;;18.66;100.00;98203.00;5052139;28;20103;-85
2023/09/22 01:27:42;;;;;;;11.90;7.72;;;;;;;18.45;100.00;98175.19;5051774;28;20502;-85
2023/09/22 01:30:09;;;;;;;11.20;6.78;;;;;;;18.58;100.00;98205.59;5052075;28;20105;-85
2023/09/22 01:32:37;;;;;;;16.50;7.50;;;;;;;18.29;100.00;98161.97;5029445;28;20060;-86
2023/09/22 01:35:04;;;;;;;12.93;7.63;;;;;;;18.50;100.00;98187.94;5029422;28;20061;-86
2023/09/22 01:37:34;;;;;;;11.13;7.32;;;;;;;18.21;100.00;98148.75;5029685;28;20087;-85
2023/09/22 01:40:00;;;;;;;8.90;6.85;;;;;;;18.19;100.00;98162.06;5029448;28;20037;-86
2023/09/22 01:42:26;;;;;;;10.38;7.63;;;;;;;18.32;100.00;98195.91;5029567;28;20132;-85
2023/09/22 01:44:51;;;;;;;9.38;7.72;;;;;;;18.31;100.00;98183.69;5029099;28;20042;-85
2023/09/22 01:47:17;;;;;;;11.80;7.55;;;;;;;18.17;100.00;98173.75;5013028;28;20071;-86
2023/09/22 01:49:42;;;;;;;10.68;7.13;;;;;;;18.18;100.00;98186.75;5012643;28;20401;-86
2023/09/22 01:52:08;;;;;;;11.07;7.20;;;;;;;18.22;100.00;98187.28;5029433;28;20119;-85
2023/09/22 01:54:33;;;;;;;12.77;7.20;;;;;;;18.22;100.00;98184.66;5029697;28;20188;-85
2023/09/22 01:56:59;;;;;;;12.18;7.35;;;;;;;18.15;100.00;98188.88;5029084;28;20029;-86
2023/09/22 01:59:24;;;;;;;9.02;7.65;;;;;;;17.99;100.00;98159.78;5012808;28;20185;-85
2023/09/22 02:01:49;;;;;;;13.15;7.60;;;;;;;18.09;100.00;98178.97;5029082;28;20053;-85
2023/09/22 02:04:14;;;;;;;14.30;7.85;;;;;;;17.94;100.00;98150.53;5046670;28;20528;-85
2023/09/22 02:06:40;;;;;;;9.93;7.10;;;;;;;18.13;100.00;98169.78;5050479;28;20112;-85
2023/09/22 02:09:06;;;;;;;10.07;7.18;;;;;;;17.73;100.00;98115.78;5050419;28;20120;-85
2023/09/22 02:11:31;;;;;;;10.77;7.93;;;;;;;18.06;100.00;98168.72;5033761;28;20108;-85
2023/09/22 02:13:57;;;;;;;15.40;7.65;;;;;;;17.90;100.00;98141.28;5053915;28;20104;-85
2023/09/22 02:16:22;;;;;;;12.70;7.78;;;;;;;18.01;100.00;98169.19;5055486;28;20025;-85
2023/09/22 02:18:48;;;;;;;11.02;7.35;;;;;;;17.91;100.00;98157.94;5037573;28;20155;-85
2023/09/22 02:21:14;;;;;;;10.80;7.75;;;;;;;17.97;100.00;98161.75;5055587;28;20025;-85
2023/09/22 02:23:39;;;;;;;13.85;8.20;;;;;;;18.00;100.00;98167.56;5055498;28;20509;-85
2023/09/22 02:26:08;;;;;;;11.20;8.02;;;;;;;17.74;100.00;98124.53;5055152;28;20057;-86
2023/09/22 02:28:34;;;;;;;9.98;7.95;;;;;;;17.93;100.00;98150.69;5055312;28;20113;-85
2023/09/22 02:30:59;;;;;;;11.20;8.80;;;;;;;17.90;100.00;98151.00;5055291;28;20471;-85
2023/09/22 02:33:25;;;;;;;14.55;8.65;;;;;;;17.83;100.00;98144.72;5055379;28;20033;-85
2023/09/22 02:35:51;;;;;;;11.15;7.13;;;;;;;17.86;100.00;98152.28;5055092;28;20029;-85
2023/09/22 02:38:16;;;;;;;12.52;8.00;;;;;;;17.98;100.00;98176.56;5037282;28;20487;-85
2023/09/22 02:40:44;;;;;;;10.10;7.63;;;;;;;17.89;100.00;98144.09;5055148;28;20017;-86
2023/09/22 02:43:09;;;;;;;10.15;7.55;;;;;;;17.86;100.00;98145.22;5036996;28;20029;-86
2023/09/22 02:45:40;;;;;;;9.90;7.28;;;;;;;17.95;100.00;98152.22;5037249;28;20092;-86
2023/09/22 02:48:06;;;;;;;10.27;7.80;;;;;;;17.90;100.00;98154.47;5054716;28;20036;-86
2023/09/22 02:50:31;;;;;;;12.32;8.55;;;;;;;17.98;100.00;98166.03;5053733;28;20057;-86
2023/09/22 02:52:57;;;;;;;14.57;8.20;;;;;;;17.69;100.00;98122.34;5036841;28;20063;-86
2023/09/22 02:55:22;;;;;;;10.95;8.13;;;;;;;17.78;100.00;98134.66;5054931;28;20025;-86
2023/09/22 02:57:48;;;;;;;11.48;7.78;;;;;;;17.75;100.00;98142.03;5054538;28;20387;-86
2023/09/22 03:00:20;;;;;;;11.90;8.02;;;;;;;17.91;100.00;98179.03;5054978;28;20028;-86
2023/09/22 03:02:48;;;;;;;19.25;8.57;;;;;;;17.83;100.00;98163.16;5054601;28;20033;-85
2023/09/22 03:05:16;;;;;;;14.45;8.13;;;;;;;17.77;100.00;98151.41;5054585;28;20032;-86
2023/09/22 03:07:42;;;;;;;14.80;8.25;;;;;;;17.87;100.00;98178.50;5054579;28;20471;-86
2023/09/22 03:10:10;;;;;;;9.48;7.68;;;;;;;17.71;100.00;98144.09;5054328;28;20108;-86
2023/09/22 03:12:37;;;;;;;10.20;7.43;;;;;;;17.78;100.00;98165.41;5036480;28;20560;-85
2023/09/22 03:15:03;;;;;;;15.88;8.68;;;;;;;17.68;100.00;98162.84;5054635;28;20025;-85
2023/09/22 03:17:29;;;;;;;11.95;7.90;;;;;;;17.84;100.00;98181.44;5054502;28;20108;-86
2023/09/22 03:19:57;;;;;;;11.93;8.57;;;;;;;17.68;100.00;98165.47;5054514;28;20579;-86
2023/09/22 03:22:23;;;;;;;10.75;6.90;;;;;;;17.53;100.00;98141.50;5054384;28;20029;-86
2023/09/22 03:24:48;;;;;;;13.10;8.25;;;;;;;17.63;100.00;98171.19;5034869;28;20037;-85
2023/09/22 03:27:13;;;;;;;12.15;8.23;;;;;;;17.56;100.00;98175.41;5054448;28;20027;-86
2023/09/22 03:29:39;;;;;;;11.43;8.05;;;;;;;17.60;100.00;98178.56;5053094;28;20025;-85
2023/09/22 03:32:06;;;;;;;18.08;9.52;;;;;;;17.39;100.00;98137.59;5053949;28;20376;-85
2023/09/22 03:34:31;;;;;;;15.90;7.75;;;;;;;17.54;100.00;98158.13;5052866;28;20391;-86
2023/09/22 03:36:58;;;;;;;11.38;7.78;;;;;;;17.61;100.00;98178.44;5053727;28;20025;-85
2023/09/22 03:39:26;;;;;;;10.98;7.32;;;;;;;17.59;100.00;98164.56;5053926;28;20384;-86
2023/09/22 03:41:52;;;;;;;8.60;7.40;;;;;;;17.63;100.00;98163.28;5053914;28;20021;-86
2023/09/22 03:44:19;;;;;;;9.25;7.68;;;;;;;17.57;100.00;98163.91;5052735;28;20025;-86
2023/09/22 03:46:44;;;;;;;11.88;7.25;;;;;;;17.60;100.00;98176.75;5036072;28;20593;-85
2023/09/22 03:49:09;;;;;;;10.43;7.82;;;;;;;17.40;100.00;98146.31;5053283;28;20131;-88
2023/09/22 03:51:35;;;;;;;15.30;8.45;;;;;;;17.49;100.00;98173.53;5035871;28;20021;-89
2023/09/22 03:54:00;;;;;;;12.95;8.50;;;;;;;17.51;100.00;98179.47;5052017;28;20025;-88
2023/09/22 03:56:25;;;;;;;11.63;7.85;;;;;;;17.35;100.00;98152.03;5035967;28;20140;-88
2023/09/22 03:58:51;;;;;;;10.93;7.75;;;;;;;17.39;100.00;98163.06;5035636;28;20039;-88
2023/09/22 04:01:16;;;;;;;9.65;6.93;;;;;;;17.52;100.00;98181.94;5035869;28;20021;-88
2023/09/22 04:03:41;;;;;;;12.52;7.43;;;;;;;17.42;100.00;98163.59;5052369;28;20099;-88
2023/09/22 04:06:07;;;;;;;12.73;7.43;;;;;;;17.50;100.00;98177.81;5035492;28;20024;-88
2023/09/22 04:08:32;;;;;;;9.00;7.68;;;;;;;17.40;100.00;98177.88;5035546;28;20032;-88
2023/09/22 04:10:57;;;;;;;11.13;7.22;;;;;;;17.36;100.00;98163.38;5052110;28;20064;-88
2023/09/22 04:13:27;;;;;;;11.48;7.43;;;;;;;17.38;100.00;98164.88;5053384;28;20029;-88
2023/09/22 04:16:01;;;;;;;10.38;7.82;;;;;;;17.33;100.00;98164.50;5053127;28;20021;-88
2023/09/22 04:18:30;;;;;;;17.45;9.23;;;;;;;17.34;100.00;98166.16;5035233;28;20025;-89
2023/09/22 04:21:01;;;;;;;11.02;8.65;;;;;;;17.27;100.00;98164.28;5034982;28;20028;-88
2023/09/22 04:23:27;;;;;;;13.88;8.57;;;;;;;17.22;100.00;98148.94;5035412;28;20033;-88
2023/09/22 04:25:54;;;;;;;11.90;8.00;;;;;;;17.28;100.00;98152.78;5035148;28;20032;-89
2023/09/22 04:28:23;;;;;;;8.43;7.53;;;;;;;17.48;100.00;98180.59;5035293;28;20032;-89
2023/09/22 04:30:49;;;;;;;11.98;7.82;;;;;;;17.51;100.00;98184.75;5053227;28;20499;-89
2023/09/22 04:33:15;;;;;;;10.73;8.30;;;;;;;17.41;100.00;98177.75;5034799;28;20024;-88
2023/09/22 04:35:40;;;;;;;12.55;8.15;;;;;;;17.45;100.00;98181.75;5052560;28;20028;-89
2023/09/22 04:38:05;;;;;;;11.93;7.93;;;;;;;17.42;100.00;98173.31;5034862;28;20021;-89
2023/09/22 04:40:38;;;;;;;9.93;7.07;;;;;;;17.58;100.00;98205.06;5035053;28;20051;-89
2023/09/22 04:43:09;;;;;;;13.48;7.72;;;;;;;17.58;100.00;98204.22;5034647;28;20029;-89
2023/09/22 04:45:40;;;;;;;10.57;8.73;;;;;;;17.56;100.00;98217.53;5034739;28;20021;-88
2023/09/22 04:48:09;;;;;;;14.35;7.32;;;;;;;17.68;100.00;98255.00;5050868;28;20112;-89
2023/09/22 04:50:34;;;;;;;11.70;7.30;;;;;;;17.69;100.00;98252.19;5052749;28;20025;-89
2023/09/22 04:53:00;;;;;;;12.57;8.20;;;;;;;17.60;100.00;98218.88;5052387;28;20029;-89
2023/09/22 04:55:29;;;;;;;13.25;7.78;;;;;;;17.65;100.00;98213.97;5034747;28;20064;-89
2023/09/22 04:57:54;;;;;;;12.20;8.07;;;;;;;17.66;100.00;98226.19;5050979;28;20124;-88
2023/09/22 05:00:24;;;;;;;12.65;8.55;;;;;;;17.62;100.00;98219.56;5052751;28;20108;-89
2023/09/22 05:02:52;;;;;;;9.85;7.70;;;;;;;17.86;100.00;98247.09;5034385;28;20056;-89
2023/09/22 05:05:19;;;;;;;9.30;7.20;;;;;;;17.83;100.00;98223.72;5052685;28;20045;-89
2023/09/22 05:07:47;;;;;;;10.65;8.10;;;;;;;17.89;100.00;98247.63;5034482;28;20028;-89
2023/09/22 05:10:12;;;;;;;10.35;7.68;;;;;;;17.97;100.00;98246.88;5034341;28;20107;-89
2023/09/22 05:12:38;;;;;;;11.02;7.25;;;;;;;18.08;100.00;98257.19;5034290;28;20033;-89
2023/09/22 05:15:04;;;;;;;12.55;7.65;;;;;;;18.19;100.00;98253.47;5034076;28;20025;-89
2023/09/22 05:17:30;;;;;;;9.20;7.28;;;;;;;18.12;100.00;98232.19;5034208;28;20068;-89
2023/09/22 05:19:55;;;;;;;9.60;7.30;;;;;;;18.53;100.00;98271.16;5034495;28;20068;-89
2023/09/22 05:22:21;;;;;;;12.77;7.75;;;;;;;18.69;100.00;98260.69;5034435;28;20033;-89
2023/09/22 05:24:46;;;;;;;10.82;6.78;;;;;;;18.81;100.00;98253.38;5034527;28;20103;-89
2023/09/22 05:27:12;;;;;;;8.85;7.15;;;;;;;18.98;100.00;98259.56;5033907;28;20025;-89
2023/09/22 05:29:37;;;;;;;7.22;6.47;;;;;;;19.17;100.00;98275.97;5034204;28;20040;-88
2023/09/22 05:32:03;;;;;;;12.77;7.50;;;;;;;19.27;100.00;98264.44;5050228;28;20036;-89
2023/09/22 05:34:28;;;;;;;8.65;6.57;;;;;;;19.41;100.00;98264.63;5034018;28;20029;-89
2023/09/22 05:36:54;;;;;;;8.38;6.80;;;;;;;19.45;100.00;98265.97;5051781;28;20316;-89
2023/09/22 05:39:20;;;;;;;9.68;6.85;;;;;;;19.44;100.00;98272.25;5034110;28;20124;-88
2023/09/22 05:41:49;;;;;;;10.02;6.90;;;;;;;19.49;100.00;98281.50;5034058;28;20033;-89
2023/09/22 05:44:16;;;;;;;8.43;6.80;;;;;;;19.40;100.00;98283.28;5051530;28;20387;-89
2023/09/22 05:46:42;;;;;;;12.43;6.90;;;;;;;19.35;100.00;98289.06;5034023;28;20430;-89
2023/09/22 05:49:07;;;;;;;10.75;6.25;;;;;;;19.30;100.00;98275.53;5032884;28;20128;-89
2023/09/22 05:51:32;;;;;;;9.60;6.75;;;;;;;19.45;100.00;98291.56;5033923;28;20067;-89
2023/09/22 05:53:58;;;;;;;8.48;6.68;;;;;;;19.42;100.00;98292.72;5033575;28;20029;-89
2023/09/22 05:56:25;;;;;;;11.32;6.63;;;;;;;19.45;100.00;98295.00;5033848;28;20112;-89
2023/09/22 05:58:51;;;;;;;8.85;6.25;;;;;;;19.53;100.00;98301.31;5033721;28;20033;-88
2023/09/22 06:01:16;;;;;;;9.20;6.30;;;;;;;19.52;100.00;98311.06;5033429;28;20055;-89
2023/09/22 06:03:44;;;;;;;9.90;6.00;;;;;;;19.64;100.00;98316.91;5033828;28;20078;-89
2023/09/22 06:06:11;;;;;;;9.45;6.82;;;;;;;19.48;100.00;98290.41;5051475;28;20053;-89
2023/09/22 06:08:39;;;;;;;8.00;6.15;;;;;;;19.33;100.00;98285.72;5050396;28;20021;-89
2023/09/22 06:11:05;;;;;;;8.07;6.28;;;;;;;19.43;100.00;98290.91;5033480;28;20029;-89
2023/09/22 06:13:32;;;;;;;8.25;6.60;;;;;;;19.53;100.00;98307.41;5051865;28;20098;-89
2023/09/22 06:15:57;;;;;;;8.98;6.53;;;;;;;19.53;100.00;98309.25;5051448;28;20025;-89
2023/09/22 06:18:22;;;;;;;9.60;6.95;;;;;;;19.65;100.00;98310.63;5033633;28;20048;-89
2023/09/22 06:21:10;;;;;;;10.35;6.03;;;;;;;19.58;100.00;98310.41;5009250;28;20037;-89
2023/09/22 06:23:36;;;;;;;10.98;6.40;;;;;;;19.79;100.00;98327.66;4993013;28;20030;-89
2023/09/22 06:26:03;;;;;;;8.30;5.65;;;;;;;19.93;100.00;98325.22;5008920;28;20512;-89
2023/09/22 06:28:29;;;;;;;14.25;6.55;;;;;;;20.08;100.00;98317.44;5009305;28;20125;-89
2023/09/22 06:30:59;;;;;;;9.10;6.57;;;;;;;20.43;100.00;98323.38;5009254;28;20081;-89
2023/09/22 06:33:24;;;;;;;8.65;6.80;;;;;;;20.72;100.00;98322.88;5009400;28;20065;-89
2023/09/22 06:35:59;;;;;;;11.95;6.25;;;;;;;20.76;100.00;98316.28;5009459;28;20511;-89
2023/09/22 06:38:24;;;;;;;10.23;5.82;;;;;;;20.90;100.00;98325.34;5009134;28;20045;-89
2023/09/22 06:40:54;;;;;;;7.20;5.25;;;;;;;20.93;100.00;98336.41;5009226;28;20045;-89
2023/09/22 06:43:23;;;;;;;9.70;6.68;;;;;;;20.95;100.00;98340.72;5008886;28;20212;-89
2023/09/22 06:45:51;;;;;;;10.40;6.57;;;;;;;21.10;100.00;98349.59;5009163;28;20069;-89
2023/09/22 06:48:17;;;;;;;8.43;6.20;;;;;;;21.31;100.00;98356.97;5008626;28;20050;-89
2023/09/22 06:50:42;;;;;;;9.45;5.60;;;;;;;21.53;100.00;98356.28;5011185;28;20030;-89
2023/09/22 06:53:08;;;;;;;6.95;5.20;;;;;;;21.72;99.15;98362.94;5032911;28;20104;-89
2023/09/22 06:55:33;;;;;;;9.85;6.07;;;;;;;21.91;97.99;98367.81;5051394;28;20033;-89
2023/09/22 06:57:59;;;;;;;6.95;5.75;;;;;;;22.15;97.02;98374.00;5033203;28;20087;-89
2023/09/22 07:00:28;;;;;;;6.93;5.80;;;;;;;22.38;96.05;98385.44;5036510;28;20029;-89
2023/09/22 07:02:55;;;;;;;8.93;5.85;;;;;;;22.41;95.35;98370.97;5036895;28;20543;-90
2023/09/22 07:05:21;;;;;;;9.32;5.53;;;;;;;22.61;94.89;98390.72;5054690;28;20044;-89
2023/09/22 07:07:47;;;;;;;8.60;5.82;;;;;;;22.80;94.08;98377.97;5036518;28;20387;-89
2023/09/22 07:10:13;;;;;;;11.18;6.82;;;;;;;22.89;93.57;98352.97;5054509;28;20539;-89
2023/09/22 07:12:41;;;;;;;14.60;5.90;;;;;;;23.15;93.01;98357.88;5036473;28;20115;-89
2023/09/22 07:15:07;;;;;;;11.43;4.93;;;;;;;23.45;92.26;98357.84;5036369;28;20123;-89
2023/09/22 07:17:34;;;;;;;9.77;5.32;;;;;;;23.79;90.99;98370.56;5036553;28;20116;-89
2023/09/22 07:20:00;;;;;;;8.40;5.43;;;;;;;24.00;89.76;98365.25;5054379;28;20033;-89
2023/09/22 07:22:26;;;;;;;9.35;5.40;;;;;;;24.34;88.56;98369.91;5036226;28;20048;-89
2023/09/22 07:24:52;;;;;;;11.43;5.45;;;;;;;24.65;86.89;98374.09;5036431;28;20025;-89
2023/09/22 07:27:17;;;;;;;9.30;5.95;;;;;;;24.99;86.70;98372.47;5036228;28;20032;-89
2023/09/22 07:29:43;;;;;;;13.68;5.32;;;;;;;25.53;85.05;98382.44;5054317;28;20116;-89
2023/09/22 07:32:08;;;;;;;11.07;5.57;;;;;;;26.14;82.63;98369.16;5053847;28;20488;-89
2023/09/22 07:34:34;;;;;;;6.85;5.43;;;;;;;26.38;80.72;98343.75;5035979;28;20036;-89
2023/09/22 07:36:59;;;;;;;7.68;4.68;;;;;;;26.86;78.71;98351.53;5036072;28;20036;-89
2023/09/22 07:39:25;;;;;;;6.63;4.22;;;;;;;26.99;76.33;98385.44;5035980;28;20024;-89
2023/09/22 07:41:50;;;;;;;5.75;3.30;;;;;;;26.82;76.47;98379.69;5054067;28;20076;-89
2023/09/22 07:44:18;;;;;;;4.65;3.30;;;;;;;26.48;77.72;98389.56;5035787;28;20074;-89
2023/09/22 07:46:44;;;;;;;7.57;4.22;;;;;;;26.00;79.12;98386.13;5035919;28;20112;-89
2023/09/22 07:49:10;;;;;;;7.15;4.25;;;;;;;25.49;80.35;98363.38;5053763;28;20191;-89
2023/09/22 07:51:36;;;;;;;4.93;3.67;;;;;;;25.56;80.07;98388.22;5035773;28;20028;-89
2023/09/22 07:54:02;;;;;;;5.90;3.75;;;;;;;25.50;80.32;98383.69;5054013;28;20457;-89
2023/09/22 07:56:28;;;;;;;4.15;3.55;;;;;;;25.63;80.98;98383.75;5035779;28;20499;-89
2023/09/22 07:58:53;;;;;;;8.13;3.90;;;;;;;25.60;81.74;98352.13;5035897;28;20033;-89
2023/09/22 08:01:18;;;;;;;6.10;4.00;;;;;;;25.69;81.05;98366.13;5053400;28;20021;-89
2023/09/22 08:03:44;;;;;;;6.15;3.38;;;;;;;25.58;79.77;98378.19;5035706;28;20040;-89
2023/09/22 08:06:12;;;;;;;6.40;3.40;;;;;;;25.55;80.44;98369.75;5053178;28;20546;-89
2023/09/22 08:08:38;;;;;;;7.40;3.75;;;;;;;25.53;79.16;98374.47;5052331;28;20032;-89
2023/09/22 08:11:04;;;;;;;4.35;3.30;;;;;;;25.33;79.30;98393.84;5052828;28;20025;-89
2023/09/22 08:13:33;;;;;;;3.75;2.97;;;;;;;24.79;79.62;98386.50;5052264;28;20309;-89
2023/09/22 08:15:58;;;;;;;4.57;2.80;;;;;;;24.41;80.68;98391.28;5073453;28;20020;-89
2023/09/22 08:18:24;;;;;;;5.95;2.95;;;;;;;24.28;82.33;98391.13;5054832;28;20491;-89
2023/09/22 08:20:49;;;;;;;5.72;3.15;;;;;;;24.46;83.57;98399.53;5055107;28;20491;-89
2023/09/22 08:23:14;;;;;;;3.65;3.35;;;;;;;24.50;83.82;98389.31;5055071;28;20024;-89
2023/09/22 08:25:43;;;;;;;5.25;3.78;;;;;;;24.56;83.84;98397.34;5072664;28;20453;-87
2023/09/22 08:28:12;;;;;;;3.67;3.30;;;;;;;24.64;84.62;98389.22;5072850;28;20082;-91
2023/09/22 08:30:39;;;;;;;5.10;3.25;;;;;;;24.73;84.17;98399.75;5051221;28;20041;-85
2023/09/22 08:33:07;;;;;;;4.97;2.92;;;;;;;24.74;83.37;98412.06;5052607;28;20031;-84
2023/09/22 08:35:34;;;;;;;3.63;3.22;;;;;;;24.54;83.19;98391.41;5048447;28;20029;-87
2023/09/22 08:38:00;;;;;;;3.80;2.90;;;;;;;24.34;81.61;98385.03;5054960;28;20028;-87
2023/09/22 08:40:26;;;;;;;4.97;2.40;;;;;;;24.33;82.28;98408.19;5040211;28;20499;-89
2023/09/22 08:43:26;;;;;;;4.70;2.58;;;;;;;24.25;83.11;98410.97;5036743;28;20021;-93
2023/09/22 08:46:30;;;;;;;2.75;2.53;;;;;;;24.21;82.70;98419.50;4995976;28;20208;-94
2023/09/22 08:49:15;;;;;;;2.55;2.35;;;;;;;23.97;82.44;98410.03;4933633;29;20111;-91
2023/09/22 08:51:41;;;;;;;3.28;2.38;;;;;;;23.83;83.37;98406.41;4917623;29;20060;-90
2023/09/22 08:54:07;;;;;;;5.20;2.47;;;;;;;23.93;85.17;98432.69;4933053;29;20036;-91
2023/09/22 08:57:29;;;;;;;3.72;2.60;;;;;;;23.55;86.06;98379.63;4935675;29;20150;-93
2023/09/22 09:00:35;;;;;;;4.57;2.90;;;;;;;23.73;85.89;98412.00;4878534;29;20049;-94
2023/09/22 09:04:01;;;;;;;3.70;2.80;;;;;;;23.81;87.56;98429.69;4841760;29;20486;-94
2023/09/22 09:06:46;;;;;;;3.80;3.35;;;;;;;23.79;87.98;98434.38;4750946;30;20186;-93
2023/09/22 09:09:12;;;;;;;4.68;2.90;;;;;;;23.77;88.37;98433.75;4750563;30;20076;-92
2023/09/22 09:12:29;;;;;;;4.32;3.15;;;;;;;23.74;85.97;98426.94;4750564;30;20044;-92
2023/09/22 09:15:14;;;;;;;4.10;2.25;;;;;;;23.66;84.50;98424.38;4717874;30;20132;-94
2023/09/22 09:18:38;;;;;;;4.32;2.28;;;;;;;23.70;84.01;98440.81;4699221;30;20495;-95
2023/09/22 09:21:51;;;;;;;3.78;2.30;;;;;;;23.44;84.28;98423.47;4662408;30;20154;-94
2023/09/22 09:24:23;;;;;;;1.92;1.80;;;;;;;23.64;84.21;98448.47;4646669;30;20039;-95
2023/09/22 09:27:46;;;;;;;3.80;2.28;;;;;;;23.60;84.16;98457.81;4599928;31;20508;-94
2023/09/22 09:30:52;;;;;;;3.00;2.03;;;;;;;23.52;83.88;98449.94;4636885;30;20042;-93
2023/09/22 09:33:26;;;;;;;2.05;1.90;;;;;;;23.58;84.12;98464.31;4647834;30;20069;-90
2023/09/22 09:35:52;;;;;;;2.10;1.90;;;;;;;23.56;85.50;98461.03;4650529;30;20086;-89
2023/09/22 09:38:19;;;;;;;2.30;2.10;;;;;;;23.56;85.83;98466.34;4679035;30;20112;-89
2023/09/22 09:40:45;;;;;;;2.95;2.20;;;;;;;23.50;85.91;98461.75;4665374;30;20050;-90
2023/09/22 09:43:12;;;;;;;2.67;2.47;;;;;;;23.40;86.69;98443.44;4678924;30;20402;-88
2023/09/22 09:45:43;;;;;;;2.30;2.10;;;;;;;23.51;86.56;98460.75;4672815;30;20046;-92
2023/09/22 09:48:14;;;;;;;2.17;1.98;;;;;;;23.54;86.90;98460.38;4683468;30;20494;-90
2023/09/22 09:50:40;;;;;;;2.95;2.63;;;;;;;23.52;85.97;98457.91;4745541;29;20058;-90
2023/09/22 09:53:36;;;;;;;3.97;2.50;;;;;;;23.57;86.40;98454.72;4888233;29;20154;-91
2023/09/22 09:56:03;;;;;;;2.28;2.05;;;;;;;23.61;85.61;98448.84;4855475;29;20053;-89
2023/09/22 09:58:32;;;;;;;3.60;2.30;;;;;;;23.55;85.03;98425.63;4856908;29;20060;-89
2023/09/22 10:00:58;;;;;;;2.13;1.90;;;;;;;23.69;85.11;98444.47;4857112;29;20048;-88
2023/09/22 10:03:25;;;;;;;3.20;1.90;;;;;;;23.72;85.28;98441.41;4859188;29;20030;-89
2023/09/22 10:05:52;;;;;;;4.28;2.05;;;;;;;23.80;85.60;98436.81;4894447;29;20033;-88
2023/09/22 10:08:20;;;;;;;2.28;2.08;;;;;;;23.80;84.82;98428.84;4894188;29;20047;-88
2023/09/22 10:10:50;;;;;;;8.70;6.20;;;;;;;23.91;84.77;98430.22;4878794;29;20074;-88
2023/09/22 10:13:16;;;;;;;20.20;13.23;;;;;;;23.97;84.51;98429.47;4894209;29;20508;-88
2023/09/22 10:16:08;;;;;;;24.08;14.77;;;;;;;24.16;84.47;98452.00;4906469;29;20036;-91
2023/09/22 10:18:46;;;;;;;;;;;;;;;24.19;84.57;98459.63;4931520;29;20199;-86
2023/09/22 10:21:30;;;;;;;15.93;9.25;;;;;;;24.25;84.79;98460.69;4947419;28;19910;-87
2023/09/22 10:24:23;;;;;;;6.75;4.82;;;;;;;24.33;84.98;98452.59;4989470;28;20045;-87
2023/09/22 10:26:54;;;;;;;4.68;2.65;;;;;;;24.44;84.84;98457.47;4989446;28;20035;-87
2023/09/22 10:29:35;;;;;;;4.65;2.72;;;;;;;24.49;84.28;98457.72;4989490;28;20041;-87
2023/09/22 10:32:18;;;;;;;5.17;3.20;;;;;;;24.55;83.87;98464.91;4993975;28;20174;-87
2023/09/22 10:34:47;;;;;;;3.03;2.50;;;;;;;24.51;83.70;98474.28;5053094;28;20036;-88
2023/09/22 10:37:12;;;;;;;3.92;2.60;;;;;;;24.39;83.90;98467.81;5036942;28;20125;-86
2023/09/22 10:39:53;;;;;;;3.58;2.58;;;;;;;24.44;84.19;98478.75;5054852;28;20503;-87
2023/09/22 10:42:20;;;;;;;5.40;3.30;;;;;;;24.32;84.40;98466.91;5054457;28;20017;-87
2023/09/22 10:45:02;;;;;;;4.20;2.78;;;;;;;24.39;84.28;98467.81;5036593;28;20020;-87
2023/09/22 10:47:37;;;;;;;2.75;2.13;;;;;;;24.22;83.13;98445.09;5036589;28;20025;-87
2023/09/22 10:50:26;;;;;;;2.65;2.13;;;;;;;24.24;84.08;98461.72;5054466;28;20049;-87
2023/09/22 10:53:05;;;;;;;2.00;1.85;;;;;;;24.17;84.06;98450.97;5054231;28;20063;-87
2023/09/22 10:55:42;;;;;;;4.80;2.72;;;;;;;24.31;83.57;98487.38;5036503;28;20028;-87
2023/09/22 10:58:16;;;;;;;3.30;2.45;;;;;;;24.36;84.58;98492.13;5054555;28;20028;-88
2023/09/22 11:00:59;;;;;;;4.28;2.80;;;;;;;24.34;84.89;98499.47;5054262;28;20028;-88
2023/09/22 11:03:25;;;;;;;5.38;2.70;;;;;;;24.30;83.97;98506.19;5054198;28;20032;-88
2023/09/22 11:05:58;;;;;;;3.42;2.22;;;;;;;24.10;84.75;98492.63;5036524;28;20028;-87
2023/09/22 11:08:24;;;;;;;2.83;2.47;;;;;;;24.02;85.01;98479.44;5054378;28;20025;-87
2023/09/22 11:10:51;;;;;;;3.70;2.42;;;;;;;24.13;85.18;98490.44;5054109;28;20052;-87
2023/09/22 11:13:17;;;;;;;3.25;2.30;;;;;;;24.09;85.57;98472.38;5036308;28;20025;-86
2023/09/22 11:15:56;;;;;;;3.30;2.20;;;;;;;24.30;85.42;98500.84;5036206;28;20548;-85
2023/09/22 11:18:23;;;;;;;4.35;2.78;;;;;;;24.38;84.97;98506.09;5054473;28;20085;-86
2023/09/22 11:20:53;;;;;;;2.75;2.40;;;;;;;24.21;84.92;98472.72;5035999;28;20029;-86
2023/09/22 11:23:20;;;;;;;2.97;2.47;;;;;;;24.36;84.76;98500.13;5036190;28;20036;-86
2023/09/22 11:25:59;;;;;;;3.08;2.22;;;;;;;24.30;85.01;98488.38;5054231;28;20056;-86
2023/09/22 11:28:26;;;;;;;3.13;2.80;;;;;;;24.48;84.61;98503.13;5036033;28;20028;-85
2023/09/22 11:30:53;;;;;;;3.63;2.60;;;;;;;24.53;84.44;98482.13;5036233;28;20048;-86
2023/09/22 11:33:18;;;;;;;2.50;2.30;;;;;;;24.55;84.65;98499.53;5053966;28;20024;-86
2023/09/22 11:35:43;;;;;;;2.92;2.30;;;;;;;24.46;84.58;98491.84;5036174;28;20032;-86